createdAt,value
2022-08-17T00:00:34.981Z,101064.63
2022-08-17T00:05:34.695Z,101063.19
2022-08-17T00:08:04.359Z,101061.59
2022-08-17T00:10:32.587Z,101063.56
2022-08-17T00:13:00.753Z,101068.38
2022-08-17T00:15:28.808Z,101063.09
2022-08-17T00:17:56.817Z,101070.34
2022-08-17T00:20:30.486Z,101066.41
2022-08-17T00:23:06.793Z,101073.78
2022-08-17T00:25:34.788Z,101084.72
2022-08-17T00:28:02.857Z,101082.84
2022-08-17T00:30:30.973Z,101086.28
2022-08-17T00:33:20.975Z,101093.41
2022-08-17T00:35:49.925Z,101089.63
2022-08-17T00:38:19.324Z,101085.31
2022-08-17T00:40:49.014Z,101085.31
2022-08-17T00:43:18.524Z,101081.66
2022-08-17T00:45:46.512Z,101088.63
2022-08-17T00:48:29.105Z,101084.22
2022-08-17T00:51:02.045Z,101071.31
2022-08-17T00:53:32.494Z,101080.16
2022-08-17T00:56:01.687Z,101077.72
2022-08-17T00:58:32.995Z,101087.88
2022-08-17T01:01:04.249Z,101092.19
2022-08-17T01:03:32.472Z,101085.69
2022-08-17T01:06:01.096Z,101094.88
2022-08-17T01:08:31.720Z,101097.59
2022-08-17T01:11:02.248Z,101097.59
2022-08-17T01:13:35.472Z,101091.31
2022-08-17T01:16:09.588Z,101086.66
2022-08-17T01:18:37.595Z,101090.59
2022-08-17T01:21:08.671Z,101086.78
2022-08-17T01:23:38.073Z,101088.75
2022-08-17T01:26:06.656Z,101087.16
2022-08-17T01:28:54.437Z,101087.28
2022-08-17T01:31:23.311Z,101088.16
2022-08-17T01:33:51.290Z,101095.38
2022-08-17T01:36:19.312Z,101095.53
2022-08-17T01:38:48.728Z,101093.91
2022-08-17T01:41:16.926Z,101073.88
2022-08-17T01:43:47.125Z,101086.38
2022-08-17T01:46:16.750Z,101091.06
2022-08-17T01:48:47.450Z,101087.75
2022-08-17T01:51:16.143Z,101088.84
2022-08-17T01:53:45.670Z,101092.66
2022-08-17T01:56:16.655Z,101096.44
2022-08-17T01:58:44.680Z,101088.34
2022-08-17T02:01:14.798Z,101083.91
2022-08-17T02:03:53.243Z,101085.78
2022-08-17T02:06:28.501Z,101047.22
2022-08-17T02:09:01.820Z,101101.97
2022-08-17T02:11:33.753Z,101092.66
2022-08-17T02:14:03.360Z,101097.06
2022-08-17T02:16:37.703Z,101097.91
2022-08-17T02:19:06.688Z,101106.88
2022-08-17T02:21:34.675Z,101104.19
2022-08-17T02:24:02.667Z,101109.59
2022-08-17T02:26:32.078Z,101110.31
2022-08-17T02:29:00.106Z,101106.75
2022-08-17T02:31:28.221Z,101105.66
2022-08-17T02:33:56.895Z,101101.84
2022-08-17T02:36:32.292Z,101102.09
2022-08-17T02:39:01.587Z,101104.19
2022-08-17T02:41:29.684Z,101107.75
2022-08-17T02:43:59.088Z,101104.94
2022-08-17T02:46:27.213Z,101103.09
2022-08-17T02:48:55.217Z,101101.25
2022-08-17T02:51:23.268Z,101103.81
2022-08-17T02:53:51.256Z,101110.94
2022-08-17T02:56:19.281Z,101104.19
2022-08-17T02:58:47.508Z,101103.59
2022-08-17T03:01:16.988Z,101115.22
2022-08-17T03:03:45.051Z,101108.88
2022-08-17T03:06:13.046Z,101111.69
2022-08-17T03:08:41.034Z,101118.19
2022-08-17T03:11:09.095Z,101121.25
2022-08-17T03:13:37.071Z,101123.09
2022-08-17T03:16:05.440Z,101124.94
2022-08-17T03:18:34.815Z,101097.28
2022-08-17T03:21:04.444Z,101134.03
2022-08-17T03:23:32.848Z,101139.16
2022-08-17T03:26:00.977Z,101128.88
2022-08-17T03:28:29.391Z,101125.94
2022-08-17T03:30:57.342Z,101121.28
2022-08-17T03:33:25.336Z,101119.44
2022-08-17T03:35:54.746Z,101129.38
2022-08-17T03:38:23.282Z,101132.06
2022-08-17T03:40:57.256Z,101135.50
2022-08-17T03:43:27.625Z,101139.19
2022-08-17T03:46:33.980Z,101131.94
2022-08-17T03:49:17.940Z,101103.19
2022-08-17T03:52:04.692Z,101129.00
2022-08-17T03:54:49.741Z,101127.50
2022-08-17T03:57:19.292Z,101130.47
2022-08-17T03:59:47.583Z,101131.06
2022-08-17T04:02:18.904Z,101132.91
2022-08-17T04:04:47.044Z,101133.41
2022-08-17T04:07:16.401Z,101131.56
2022-08-17T04:09:44.986Z,101132.16
2022-08-17T04:12:13.578Z,101132.31
2022-08-17T04:14:52.776Z,101138.69
2022-08-17T04:17:22.680Z,101139.66
2022-08-17T04:19:50.698Z,101120.88
2022-08-17T04:22:33.039Z,101132.78
2022-08-17T04:25:09.594Z,101131.06
2022-08-17T04:27:37.711Z,101136.59
2022-08-17T04:30:06.993Z,101135.88
2022-08-17T04:33:05.447Z,101126.28
2022-08-17T04:35:28.561Z,101126.28
2022-08-17T04:37:57.978Z,101126.28
2022-08-17T04:40:44.420Z,101134.38
2022-08-17T04:43:13.774Z,101132.66
2022-08-17T04:45:55.148Z,101143.22
2022-08-17T04:48:27.922Z,101144.09
2022-08-17T04:51:03.992Z,101143.47
2022-08-17T04:53:33.330Z,101142.72
2022-08-17T04:56:01.280Z,101133.28
2022-08-17T04:58:29.581Z,101139.41
2022-08-17T05:00:57.689Z,101138.78
2022-08-17T05:03:25.724Z,101135.97
2022-08-17T05:05:53.773Z,101143.22
2022-08-17T05:08:22.146Z,101136.94
2022-08-17T05:10:52.105Z,101141.38
2022-08-17T05:13:20.968Z,101148.34
2022-08-17T05:15:50.307Z,101145.66
2022-08-17T05:18:18.361Z,101149.72
2022-08-17T05:20:46.776Z,101152.19
2022-08-17T05:23:15.878Z,101154.91
2022-08-17T05:25:47.731Z,101155.84
2022-08-17T05:28:17.645Z,101106.34
2022-08-17T05:30:49.275Z,101146.66
2022-08-17T05:33:18.860Z,101151.06
2022-08-17T05:35:48.558Z,101156.22
2022-08-17T05:38:16.688Z,101156.00
2022-08-17T05:40:44.827Z,101153.91
2022-08-17T05:43:14.807Z,101141.00
2022-08-17T05:45:55.768Z,101158.75
2022-08-17T05:48:39.046Z,101155.78
2022-08-17T05:51:17.005Z,101167.22
2022-08-17T05:53:47.663Z,101163.28
2022-08-17T05:56:29.266Z,101168.09
2022-08-17T05:59:01.534Z,101156.41
2022-08-17T06:01:35.543Z,101153.00
2022-08-17T06:04:10.642Z,101172.13
2022-08-17T06:06:41.301Z,101173.25
2022-08-17T06:09:26.608Z,101168.47
2022-08-17T06:11:58.770Z,101173.75
2022-08-17T06:14:40.436Z,101176.06
2022-08-17T06:17:11.604Z,101152.50
2022-08-17T06:19:41.179Z,101172.38
2022-08-17T06:22:09.399Z,101173.25
2022-08-17T06:24:39.092Z,101167.72
2022-08-17T06:27:10.196Z,101165.38
2022-08-17T06:29:43.936Z,101175.81
2022-08-17T06:32:14.452Z,101166.34
2022-08-17T06:34:43.728Z,101176.56
2022-08-17T06:37:20.264Z,101180.34
2022-08-17T06:39:51.745Z,101189.03
2022-08-17T06:43:02.454Z,101187.84
2022-08-17T06:45:15.283Z,101179.97
2022-08-17T06:47:48.459Z,101180.19
2022-08-17T06:50:19.045Z,101182.38
2022-08-17T06:52:51.902Z,101177.72
2022-08-17T06:55:22.483Z,101174.88
2022-08-17T06:57:52.214Z,101179.63
2022-08-17T07:00:22.361Z,101192.69
2022-08-17T07:02:55.405Z,101188.00
2022-08-17T07:05:24.801Z,101152.03
2022-08-17T07:08:03.115Z,101191.66
2022-08-17T07:10:36.491Z,101188.72
2022-08-17T07:13:25.736Z,101204.06
2022-08-17T07:15:57.145Z,101200.56
2022-08-17T07:18:27.755Z,101202.28
2022-08-17T07:20:58.633Z,101203.22
2022-08-17T07:23:28.796Z,101204.53
2022-08-17T07:26:05.182Z,101215.66
2022-08-17T07:28:33.184Z,101180.75
2022-08-17T07:31:01.192Z,101221.25
2022-08-17T07:33:33.304Z,101213.91
2022-08-17T07:36:01.720Z,101220.78
2022-08-17T07:38:30.452Z,101227.72
2022-08-17T07:41:03.895Z,101238.09
2022-08-17T07:43:31.969Z,101236.53
2022-08-17T07:46:39.359Z,101243.19
2022-08-17T07:49:26.212Z,101253.03
2022-08-17T07:52:00.452Z,101247.50
2022-08-17T07:54:48.386Z,101247.94
2022-08-17T07:57:31.350Z,101243.97
2022-08-17T08:00:16.122Z,101248.66
2022-08-17T08:02:45.877Z,101232.22
2022-08-17T08:05:48.710Z,101250.97
2022-08-17T08:08:22.638Z,101243.72
2022-08-17T08:11:00.319Z,101252.91
2022-08-17T08:13:29.669Z,101249.69
2022-08-17T08:16:13.347Z,101252.44
2022-08-17T08:18:55.338Z,101254.13
2022-08-17T08:21:32.377Z,101263.78
2022-08-17T08:24:02.505Z,101265.06
2022-08-17T08:26:33.354Z,101273.53
2022-08-17T08:29:05.912Z,101273.84
2022-08-17T08:31:42.634Z,101264.59
2022-08-17T08:34:46.335Z,101274.03
2022-08-17T08:37:14.748Z,101275.88
2022-08-17T08:39:52.790Z,101269.53
2022-08-17T08:42:24.721Z,101287.16
2022-08-17T08:45:00.852Z,101277.00
2022-08-17T08:47:41.584Z,101284.75
2022-08-17T08:50:37.599Z,101282.50
2022-08-17T08:53:08.544Z,101290.66
2022-08-17T08:55:45.411Z,101291.41
2022-08-17T08:58:31.344Z,101295.31
2022-08-17T09:01:06.220Z,101302.19
2022-08-17T09:03:54.113Z,101304.50
2022-08-17T09:06:28.700Z,101309.06
2022-08-17T09:09:11.505Z,101303.69
2022-08-17T09:12:01.442Z,101313.72
2022-08-17T09:14:45.402Z,101307.00
2022-08-17T09:17:16.565Z,101311.56
2022-08-17T09:19:49.138Z,101308.28
2022-08-17T09:22:23.960Z,101315.16
2022-08-17T09:24:57.293Z,101311.44
2022-08-17T09:27:28.336Z,101308.31
2022-08-17T09:29:58.847Z,101312.19
2022-08-17T09:32:30.134Z,101306.66
2022-08-17T09:35:01.548Z,101294.22
2022-08-17T09:37:31.973Z,101321.00
2022-08-17T09:40:09.711Z,101323.69
2022-08-17T09:42:41.302Z,101315.25
2022-08-17T09:45:17.971Z,101325.00
2022-08-17T09:47:49.568Z,101331.13
2022-08-17T09:51:03.160Z,101327.56
2022-08-17T09:53:10.005Z,101329.53
2022-08-17T09:55:58.005Z,101332.44
2022-08-17T09:58:29.427Z,101322.84
2022-08-17T10:01:00.377Z,101333.88
2022-08-17T10:03:41.421Z,101333.88
2022-08-17T10:06:14.334Z,101344.59
2022-08-17T10:08:47.146Z,101343.31
2022-08-17T10:11:33.752Z,101341.88
2022-08-17T10:14:36.018Z,101340.44
2022-08-17T10:16:57.007Z,101343.03
2022-08-17T10:19:26.861Z,101344.88
2022-08-17T10:22:32.436Z,101340.72
2022-08-17T10:25:22.994Z,101355.31
2022-08-17T10:27:55.589Z,101344.91
2022-08-17T10:30:27.601Z,101331.00
2022-08-17T10:32:56.747Z,101339.69
2022-08-17T10:35:34.136Z,101337.66
2022-08-17T10:38:27.261Z,101340.06
2022-08-17T10:40:57.300Z,101336.59
2022-08-17T10:43:44.722Z,101337.56
2022-08-17T10:46:52.722Z,101336.25
2022-08-17T10:49:32.663Z,101335.31
2022-08-17T10:52:01.837Z,101335.63
2022-08-17T10:54:40.995Z,101343.38
2022-08-17T10:57:40.390Z,101338.09
2022-08-17T11:00:16.073Z,101328.81
2022-08-17T11:02:50.978Z,101327.88
2022-08-17T11:05:44.118Z,101331.22
2022-08-17T11:08:59.578Z,101341.50
2022-08-17T11:11:47.883Z,101341.13
2022-08-17T11:14:24.025Z,101337.31
2022-08-17T11:17:04.900Z,101322.50
2022-08-17T11:19:58.810Z,101335.03
2022-08-17T11:22:57.893Z,101336.28
2022-08-17T11:25:34.350Z,101340.00
2022-08-17T11:28:08.426Z,101350.63
2022-08-17T11:30:46.952Z,101351.31
2022-08-17T11:33:55.695Z,101345.38
2022-08-17T11:36:45.459Z,101343.66
2022-08-17T11:39:23.541Z,101351.50
2022-08-17T11:41:56.383Z,101353.50
2022-08-17T11:44:37.553Z,101359.09
2022-08-17T11:47:35.787Z,101355.91
2022-08-17T11:50:35.000Z,101357.28
2022-08-17T11:53:04.595Z,101367.63
2022-08-17T11:56:04.437Z,101368.41
2022-08-17T11:58:38.538Z,101361.56
2022-08-17T12:01:07.617Z,101373.75
2022-08-17T12:03:53.752Z,101368.88
2022-08-17T12:06:34.727Z,101370.25
2022-08-17T12:09:08.895Z,101365.28
2022-08-17T12:12:11.369Z,101364.63
2022-08-17T12:15:05.937Z,101372.84
2022-08-17T12:17:39.567Z,101375.44
2022-08-17T12:20:12.406Z,101383.63
2022-08-17T12:22:44.813Z,101379.56
2022-08-17T12:25:16.478Z,101366.69
2022-08-17T12:28:04.839Z,101371.22
2022-08-17T12:30:34.439Z,101379.25
2022-08-17T12:33:02.561Z,101376.97
2022-08-17T12:35:33.135Z,101390.31
2022-08-17T12:38:03.074Z,101380.19
2022-08-17T12:40:33.013Z,101351.09
2022-08-17T12:43:02.073Z,101382.34
2022-08-17T12:45:33.660Z,101374.97
2022-08-17T12:48:02.753Z,101374.78
2022-08-17T12:50:32.052Z,101375.84
2022-08-17T12:53:02.571Z,101369.28
2022-08-17T12:55:35.717Z,101370.47
2022-08-17T12:58:03.734Z,101365.63
2022-08-17T13:00:32.936Z,101368.34
2022-08-17T13:03:01.486Z,101386.88
2022-08-17T13:05:31.107Z,101372.44
2022-08-17T13:08:00.284Z,101380.72
2022-08-17T13:10:32.879Z,101376.78
2022-08-17T13:13:05.433Z,101370.56
2022-08-17T13:15:36.920Z,101366.69
2022-08-17T13:18:07.689Z,101374.47
2022-08-17T13:20:35.974Z,101364.03
2022-08-17T13:23:12.061Z,101354.47
2022-08-17T13:25:40.748Z,101358.75
2022-08-17T13:28:18.620Z,101349.13
2022-08-17T13:31:22.307Z,101369.13
2022-08-17T13:33:50.349Z,101354.13
2022-08-17T13:36:28.210Z,101360.03
2022-08-17T13:39:06.913Z,101351.03
2022-08-17T13:41:36.334Z,101367.69
2022-08-17T13:44:34.081Z,101364.28
2022-08-17T13:47:02.362Z,101359.50
2022-08-17T13:49:48.129Z,101360.47
2022-08-17T13:52:33.472Z,101363.13
2022-08-17T13:55:01.860Z,101359.63
2022-08-17T13:57:29.860Z,101366.16
2022-08-17T14:00:10.325Z,101359.50
2022-08-17T14:02:38.412Z,101359.16
2022-08-17T14:05:06.800Z,101365.94
2022-08-17T14:07:35.928Z,101352.75
2022-08-17T14:10:07.402Z,101353.13
2022-08-17T14:12:35.776Z,101369.00
2022-08-17T14:15:05.974Z,101357.91
2022-08-17T14:17:38.636Z,101360.03
2022-08-17T14:20:09.447Z,101370.78
2022-08-17T14:22:38.594Z,101358.34
2022-08-17T14:25:08.570Z,101368.59
2022-08-17T14:27:51.895Z,101369.44
2022-08-17T14:30:24.356Z,101364.22
2022-08-17T14:32:52.956Z,101368.56
2022-08-17T14:35:22.373Z,101369.66
2022-08-17T14:37:50.675Z,101370.78
2022-08-17T14:40:20.865Z,101371.09
2022-08-17T14:42:49.895Z,101376.09
2022-08-17T14:45:31.812Z,101374.41
2022-08-17T14:48:04.196Z,101380.56
2022-08-17T14:50:35.565Z,101376.38
2022-08-17T14:53:04.632Z,101380.00
2022-08-17T14:55:32.704Z,101377.66
2022-08-17T14:58:00.827Z,101377.66
2022-08-17T15:00:28.808Z,101371.69
2022-08-17T15:02:58.404Z,101374.47
2022-08-17T15:05:31.671Z,101387.22
2022-08-17T15:07:59.899Z,101376.59
2022-08-17T15:10:28.041Z,101383.81
2022-08-17T15:12:56.243Z,101374.44
2022-08-17T15:15:24.212Z,101378.00
2022-08-17T15:17:52.439Z,101381.06
2022-08-17T15:20:21.918Z,101380.22
2022-08-17T15:22:55.004Z,101380.94
2022-08-17T15:25:23.369Z,101381.78
2022-08-17T15:27:51.872Z,101382.44
2022-08-17T15:30:20.301Z,101375.78
2022-08-17T15:32:54.143Z,101380.56
2022-08-17T15:35:27.321Z,101380.00
2022-08-17T15:38:07.845Z,101380.63
2022-08-17T15:40:38.648Z,101377.22
2022-08-17T15:43:07.403Z,101366.78
2022-08-17T15:45:35.498Z,101376.56
2022-08-17T15:48:03.828Z,101380.22
2022-08-17T15:50:32.030Z,101387.22
2022-08-17T15:53:01.738Z,101379.13
2022-08-17T15:55:30.497Z,101383.31
2022-08-17T15:57:58.579Z,101383.03
2022-08-17T16:00:28.446Z,101382.72
2022-08-17T16:03:16.041Z,101382.94
2022-08-17T16:05:44.922Z,101384.44
2022-08-17T16:08:20.731Z,101386.78
2022-08-17T16:10:49.391Z,101373.75
2022-08-17T16:13:18.192Z,101381.13
2022-08-17T16:15:56.633Z,101380.81
2022-08-17T16:18:26.455Z,101386.41
2022-08-17T16:20:55.111Z,101385.41
2022-08-17T16:23:24.561Z,101381.78
2022-08-17T16:25:54.272Z,101382.53
2022-08-17T16:28:35.773Z,101375.53
2022-08-17T16:31:04.147Z,101385.50
2022-08-17T16:33:32.568Z,101385.22
2022-08-17T16:36:01.089Z,101396.03
2022-08-17T16:38:30.607Z,101390.88
2022-08-17T16:40:58.637Z,101385.69
2022-08-17T16:43:26.667Z,101396.16
2022-08-17T16:45:54.698Z,101405.03
2022-08-17T16:48:22.710Z,101409.84
2022-08-17T16:51:03.230Z,101406.03
2022-08-17T16:53:33.928Z,101408.81
2022-08-17T16:56:01.943Z,101418.13
2022-08-17T16:58:30.154Z,101422.44
2022-08-17T17:00:59.485Z,101417.66
2022-08-17T17:03:28.036Z,101427.13
2022-08-17T17:06:01.158Z,101417.91
2022-08-17T17:08:34.800Z,101423.84
2022-08-17T17:11:09.017Z,101429.84
2022-08-17T17:13:40.476Z,101386.91
2022-08-17T17:16:15.695Z,101419.75
2022-08-17T17:18:44.879Z,101424.66
2022-08-17T17:21:14.509Z,101425.69
2022-08-17T17:23:51.505Z,101430.34
2022-08-17T17:26:27.293Z,101433.75
2022-08-17T17:29:02.157Z,101425.81
2022-08-17T17:31:33.953Z,101421.94
2022-08-17T17:34:04.018Z,101424.03
2022-08-17T17:36:36.455Z,101433.06
2022-08-17T17:39:08.326Z,101438.53
2022-08-17T17:41:40.941Z,101441.25
2022-08-17T17:44:10.954Z,101450.59
2022-08-17T17:46:41.050Z,101452.25
2022-08-17T17:49:11.231Z,101463.78
2022-08-17T17:51:59.697Z,101461.44
2022-08-17T17:54:39.454Z,101465.22
2022-08-17T17:57:11.008Z,101454.28
2022-08-17T17:59:44.111Z,101450.38
2022-08-17T18:02:38.956Z,101457.09
2022-08-17T18:05:11.435Z,101467.44
2022-08-17T18:07:42.140Z,101468.09
2022-08-17T18:10:29.871Z,101482.06
2022-08-17T18:13:00.961Z,101466.31
2022-08-17T18:15:31.472Z,101472.97
2022-08-17T18:18:04.269Z,101487.50
2022-08-17T18:20:53.086Z,101482.63
2022-08-17T18:23:27.776Z,101488.31
2022-08-17T18:25:58.809Z,101478.75
2022-08-17T18:28:28.447Z,101482.50
2022-08-17T18:31:07.943Z,101476.81
2022-08-17T18:33:36.153Z,101480.31
2022-08-17T18:36:04.608Z,101489.34
2022-08-17T18:38:33.929Z,101495.78
2022-08-17T18:41:20.538Z,101494.06
2022-08-17T18:44:00.233Z,101495.06
2022-08-17T18:46:30.153Z,101497.19
2022-08-17T18:48:59.713Z,101497.78
2022-08-17T18:51:41.780Z,101500.22
2022-08-17T18:54:16.761Z,101502.06
2022-08-17T18:56:49.647Z,101503.09
2022-08-17T18:59:26.607Z,101492.31
2022-08-17T19:02:16.028Z,101508.63
2022-08-17T19:05:03.349Z,101505.63
2022-08-17T19:07:32.482Z,101503.59
2022-08-17T19:10:06.870Z,101505.25
2022-08-17T19:12:39.137Z,101495.06
2022-08-17T19:15:08.606Z,101505.78
2022-08-17T19:17:39.278Z,101508.47
2022-08-17T19:20:11.864Z,101500.41
2022-08-17T19:22:53.650Z,101517.38
2022-08-17T19:25:24.031Z,101511.03
2022-08-17T19:27:59.141Z,101517.84
2022-08-17T19:30:27.831Z,101521.00
2022-08-17T19:32:57.046Z,101536.28
2022-08-17T19:35:26.082Z,101537.00
2022-08-17T19:38:02.696Z,101533.31
2022-08-17T19:40:52.208Z,101542.75
2022-08-17T19:43:24.851Z,101531.78
2022-08-17T19:45:58.367Z,101548.19
2022-08-17T19:48:35.498Z,101548.34
2022-08-17T19:51:06.600Z,101549.31
2022-08-17T19:54:02.061Z,101549.59
2022-08-17T19:56:27.515Z,101558.88
2022-08-17T19:59:01.163Z,101552.56
2022-08-17T20:01:35.320Z,101574.56
2022-08-17T20:04:08.037Z,101566.69
2022-08-17T20:06:38.333Z,101584.09
2022-08-17T20:09:19.289Z,101571.78
2022-08-17T20:11:48.792Z,101568.75
2022-08-17T20:14:20.396Z,101562.84
2022-08-17T20:16:48.447Z,101566.22
2022-08-17T20:19:23.848Z,101571.31
2022-08-17T20:21:55.232Z,101535.91
2022-08-17T20:24:26.609Z,101570.59
2022-08-17T20:26:58.489Z,101566.66
2022-08-17T20:29:39.694Z,101535.06
2022-08-17T20:32:19.459Z,101530.19
2022-08-17T20:34:48.348Z,101580.03
2022-08-17T20:37:31.194Z,101549.03
2022-08-17T20:40:25.958Z,101571.06
2022-08-17T20:42:53.968Z,101574.28
2022-08-17T20:45:53.769Z,101570.72
2022-08-17T20:48:37.536Z,101566.78
2022-08-17T20:51:28.219Z,101570.97
2022-08-17T20:54:37.760Z,101574.69
2022-08-17T20:57:06.167Z,101573.81
2022-08-17T20:59:59.400Z,101576.53
2022-08-17T21:02:29.470Z,101585.78
2022-08-17T21:05:30.060Z,101580.47
2022-08-17T21:07:59.924Z,101583.34
2022-08-17T21:10:35.617Z,101574.09
2022-08-17T21:13:36.836Z,101576.66
2022-08-17T21:16:08.941Z,101572.94
2022-08-17T21:18:41.891Z,101579.00
2022-08-17T21:21:17.882Z,101575.28
2022-08-17T21:24:06.286Z,101582.28
2022-08-17T21:26:50.491Z,101588.72
2022-08-17T21:29:31.827Z,101590.72
2022-08-17T21:32:24.635Z,101584.66
2022-08-17T21:35:28.625Z,101590.75
2022-08-17T21:38:00.150Z,101576.06
2022-08-17T21:40:29.407Z,101586.91
2022-08-17T21:43:00.419Z,101589.38
2022-08-17T21:45:31.273Z,101588.25
2022-08-17T21:48:11.192Z,101590.09
2022-08-17T21:50:41.723Z,101598.00
2022-08-17T21:53:10.001Z,101605.63
2022-08-17T21:55:38.044Z,101607.22
2022-08-17T21:58:14.073Z,101604.38
2022-08-17T22:00:44.442Z,101613.97
2022-08-17T22:03:23.729Z,101609.69
2022-08-17T22:05:53.185Z,101612.06
2022-08-17T22:08:22.388Z,101603.91
2022-08-17T22:10:51.336Z,101608.56
2022-08-17T22:13:21.712Z,101604.91
2022-08-17T22:15:51.781Z,101604.69
2022-08-17T22:18:21.387Z,101606.00
2022-08-17T22:20:53.462Z,101591.34
2022-08-17T22:23:45.477Z,101576.94
2022-08-17T22:26:14.535Z,101594.56
2022-08-17T22:28:45.612Z,101596.91
2022-08-17T22:31:14.789Z,101585.19
2022-08-17T22:33:44.990Z,101589.50
2022-08-17T22:36:26.923Z,101589.97
2022-08-17T22:38:59.118Z,101585.56
2022-08-17T22:41:36.949Z,101594.56
2022-08-17T22:44:10.242Z,101597.28
2022-08-17T22:46:42.845Z,101585.94
2022-08-17T22:49:10.876Z,101600.94
2022-08-17T22:51:38.938Z,101610.69
2022-08-17T22:54:34.417Z,101596.03
2022-08-17T22:57:22.085Z,101560.09
2022-08-17T22:59:51.192Z,101606.00
2022-08-17T23:02:24.422Z,101606.13
2022-08-17T23:04:54.513Z,101605.13
2022-08-17T23:07:22.571Z,101609.72
2022-08-17T23:09:52.836Z,101602.94
2022-08-17T23:12:24.481Z,101603.53
2022-08-17T23:14:56.890Z,101606.88
2022-08-17T23:17:24.979Z,101599.25
2022-08-17T23:19:53.132Z,101607.38
2022-08-17T23:22:21.096Z,101600.97
2022-08-17T23:24:50.611Z,101599.13
2022-08-17T23:27:20.061Z,101558.72
2022-08-17T23:29:48.694Z,101589.91
2022-08-17T23:32:17.574Z,101589.25
2022-08-17T23:34:48.167Z,101599.47
2022-08-17T23:37:16.821Z,101595.75
2022-08-17T23:39:45.745Z,101598.31
2022-08-17T23:42:15.990Z,101601.75
2022-08-17T23:44:45.363Z,101611.31
2022-08-17T23:47:13.411Z,101601.31
2022-08-17T23:49:41.401Z,101600.19
2022-08-17T23:52:12.639Z,101607.06
2022-08-17T23:54:44.688Z,101606.75
2022-08-17T23:57:13.186Z,101610.94
2022-08-17T23:59:41.264Z,101609.53
